Time;durP1;ratioP1;P1;durP2;ratioP2;P2;SDS_P1;SDS_P2;PMS_P1;PMS_P2;Temp;Humidity;BMP_temperature;BMP_pressure;BME280_temperature;BME280_humidity;BME280_pressure;Samples;Min_cycle;Max_cycle;Signal;HPM_P1;HPM_P2
2022/02/05 00:05:27;;;;;;;8.55;4.90;;;1.00;99.90;;;;;;5091611;28;20180;-71
2022/02/05 00:08:10;;;;;;;7.50;4.15;;;1.10;99.90;;;;;;5091424;28;20275;-71
2022/02/05 00:15:50;;;;;;;7.00;4.45;;;1.10;99.90;;;;;;5091517;28;20164;-71
2022/02/05 00:40:28;;;;;;;13.50;6.78;;;1.40;99.90;;;;;;5071098;28;20215;-71
2022/02/05 00:42:54;;;;;;;12.57;7.50;;;1.30;99.90;;;;;;5070915;28;20152;-71
2022/02/05 00:45:20;;;;;;;16.85;6.50;;;1.20;99.90;;;;;;5070702;28;20200;-71
2022/02/05 00:47:48;;;;;;;12.95;7.13;;;1.20;99.90;;;;;;5070730;28;20226;-71
2022/02/05 00:50:20;;;;;;;17.55;8.50;;;1.20;99.90;;;;;;5070701;28;20175;-71
2022/02/05 00:52:58;;;;;;;13.43;7.40;;;1.10;99.90;;;;;;5070468;28;20195;-71
2022/02/05 00:55:27;;;;;;;12.48;7.13;;;1.00;99.90;;;;;;5070455;28;20244;-71
2022/02/05 00:57:53;;;;;;;14.18;6.80;;;0.90;99.90;;;;;;5070621;28;20164;-71
2022/02/05 01:00:20;;;;;;;11.13;6.72;;;0.80;99.90;;;;;;5070446;28;20180;-71
2022/02/05 01:02:46;;;;;;;12.90;6.40;;;0.70;99.90;;;;;;5070252;28;20225;-71
2022/02/05 01:05:13;;;;;;;11.30;6.38;;;0.60;99.90;;;;;;5070117;28;20197;-72
2022/02/05 01:07:40;;;;;;;15.90;6.93;;;0.60;99.90;;;;;;5070192;28;20199;-72
2022/02/05 01:10:07;;;;;;;14.80;7.20;;;0.60;99.90;;;;;;5070224;28;20157;-71
2022/02/05 01:12:37;;;;;;;13.10;6.28;;;0.50;99.90;;;;;;5070201;28;20180;-72
2022/02/05 01:15:04;;;;;;;8.43;6.00;;;0.50;99.90;;;;;;5070208;28;20724;-71
2022/02/05 01:17:54;;;;;;;7.40;5.07;;;0.50;99.90;;;;;;5070217;28;20161;-71
2022/02/05 01:22:44;;;;;;;12.52;6.68;;;0.40;99.90;;;;;;5073185;28;20215;-71
2022/02/05 01:25:11;;;;;;;14.48;6.68;;;0.40;99.90;;;;;;5080152;28;20261;-71
2022/02/05 01:27:44;;;;;;;11.00;6.72;;;0.30;99.90;;;;;;5089968;28;20247;-71
2022/02/05 01:32:40;;;;;;;10.00;6.00;;;0.20;99.90;;;;;;5089882;28;20161;-71
2022/02/05 01:35:35;;;;;;;13.70;6.43;;;0.30;99.90;;;;;;5089780;28;20184;-71
2022/02/05 01:51:47;;;;;;;7.85;5.25;;;0.30;99.90;;;;;;5089751;28;20624;-70
2022/02/05 02:07:12;;;;;;;7.25;5.28;;;0.00;99.90;;;;;;5089429;28;20198;-70
2022/02/05 02:12:38;;;;;;;12.63;6.13;;;-0.20;99.90;;;;;;5097547;28;20183;-71
2022/02/05 02:15:17;;;;;;;7.65;5.38;;;-0.20;99.90;;;;;;5089381;28;20187;-71
2022/02/05 02:23:39;;;;;;;6.82;5.15;;;-0.10;99.90;;;;;;5087902;28;20233;-70
2022/02/05 02:28:31;;;;;;;9.25;5.35;;;-0.30;99.90;;;;;;5069157;28;20252;-71
2022/02/05 02:31:05;;;;;;;11.00;5.60;;;-0.30;99.90;;;;;;5069018;28;20694;-71
2022/02/05 02:33:35;;;;;;;8.05;5.63;;;-0.30;99.90;;;;;;5069089;28;20606;-70
2022/02/05 02:36:03;;;;;;;11.40;5.65;;;-0.30;99.90;;;;;;5069101;28;20235;-70
2022/02/05 02:38:39;;;;;;;8.13;5.22;;;-0.30;99.90;;;;;;5068867;28;20179;-70
2022/02/05 02:41:13;;;;;;;8.23;5.18;;;-0.30;99.90;;;;;;5068793;28;20582;-70
2022/02/05 02:43:39;;;;;;;10.05;5.43;;;-0.40;99.90;;;;;;5068783;28;20176;-69
2022/02/05 02:46:06;;;;;;;12.43;4.82;;;-0.40;99.90;;;;;;5068759;28;20207;-69
2022/02/05 02:48:32;;;;;;;8.82;5.72;;;-0.50;99.90;;;;;;5067683;28;20172;-69
2022/02/05 02:58:59;;;;;;;9.25;5.68;;;-0.50;99.90;;;;;;5067510;28;20540;-71
2022/02/05 03:01:25;;;;;;;11.60;5.85;;;-0.50;99.90;;;;;;5068525;28;20223;-70
2022/02/05 03:03:51;;;;;;;10.00;6.03;;;-0.50;99.90;;;;;;5068362;28;20199;-69
2022/02/05 03:06:17;;;;;;;9.68;5.40;;;-0.60;99.90;;;;;;5068447;28;20724;-68
2022/02/05 03:08:44;;;;;;;9.25;6.60;;;-0.70;99.90;;;;;;5068574;28;20215;-70
2022/02/05 03:11:12;;;;;;;9.68;5.63;;;-0.80;99.90;;;;;;5068626;28;20176;-70
2022/02/05 03:13:38;;;;;;;13.40;5.80;;;-0.80;99.90;;;;;;5068501;28;20279;-70
2022/02/05 03:16:06;;;;;;;9.45;5.18;;;-0.70;99.90;;;;;;5068806;28;20169;-70
2022/02/05 03:21:31;;;;;;;9.73;5.38;;;-0.80;99.90;;;;;;5086558;28;20657;-70
2022/02/05 03:23:56;;;;;;;7.65;4.95;;;-0.90;99.90;;;;;;5087612;28;20207;-70
2022/02/05 03:26:22;;;;;;;12.88;4.93;;;-1.00;99.90;;;;;;5106668;28;20191;-70
2022/02/05 03:28:48;;;;;;;9.05;5.18;;;-1.00;99.90;;;;;;5109335;28;20163;-70
2022/02/05 03:31:14;;;;;;;10.95;5.65;;;-1.10;99.90;;;;;;5110527;28;20214;-70
2022/02/05 03:33:40;;;;;;;9.88;5.53;;;-1.10;99.90;;;;;;5109932;28;20160;-70
2022/02/05 03:36:06;;;;;;;9.77;5.50;;;-1.10;99.90;;;;;;5110481;28;20221;-70
2022/02/05 03:38:32;;;;;;;9.48;4.82;;;-1.20;99.90;;;;;;5110536;28;20194;-70
2022/02/05 03:40:58;;;;;;;9.60;5.65;;;-1.20;99.90;;;;;;5110363;28;20236;-70
2022/02/05 03:43:23;;;;;;;11.18;5.53;;;-1.10;99.90;;;;;;5110072;28;20194;-70
2022/02/05 03:45:49;;;;;;;12.23;5.65;;;-1.20;99.90;;;;;;5110004;28;20205;-70
2022/02/05 03:48:15;;;;;;;6.88;5.28;;;-1.30;99.90;;;;;;5110100;28;20613;-70
2022/02/05 03:50:41;;;;;;;10.70;5.95;;;-1.20;99.90;;;;;;5109990;28;20343;-70
2022/02/05 03:53:08;;;;;;;9.85;5.45;;;-1.30;99.90;;;;;;5110056;28;20167;-70
2022/02/05 03:55:35;;;;;;;9.02;5.43;;;-1.40;99.90;;;;;;5109824;28;20223;-70
2022/02/05 03:58:01;;;;;;;6.22;4.22;;;-1.30;99.90;;;;;;5075843;28;20192;-70
2022/02/05 04:00:27;;;;;;;9.48;4.63;;;-1.30;99.90;;;;;;5071692;28;20149;-70
2022/02/05 04:02:53;;;;;;;8.40;5.05;;;-1.20;99.90;;;;;;5071397;28;20232;-70
2022/02/05 04:05:19;;;;;;;10.73;4.95;;;-1.10;99.90;;;;;;5071423;28;20196;-70
2022/02/05 04:07:49;;;;;;;6.95;5.10;;;-1.20;99.90;;;;;;5071431;28;20195;-69
2022/02/05 04:10:21;;;;;;;13.00;5.28;;;-1.30;99.90;;;;;;5071467;28;20175;-70
2022/02/05 04:18:16;;;;;;;7.03;4.30;;;-1.30;99.90;;;;;;5071303;28;20240;-70
2022/02/05 04:20:42;;;;;;;7.15;5.00;;;-1.30;99.90;;;;;;5071197;28;20164;-70
2022/02/05 04:23:08;;;;;;;10.35;3.78;;;-1.20;99.90;;;;;;5071204;28;20172;-70
2022/02/05 04:25:34;;;;;;;7.25;3.72;;;-1.00;99.90;;;;;;5071105;28;20196;-70
2022/02/05 04:28:00;;;;;;;7.07;3.60;;;-0.70;99.90;;;;;;5071196;28;20204;-70
2022/02/05 04:30:26;;;;;;;9.10;4.40;;;-0.70;99.90;;;;;;5071164;28;20196;-70
2022/02/05 04:32:52;;;;;;;5.75;3.72;;;-0.80;99.90;;;;;;5071019;28;20157;-70
2022/02/05 04:35:18;;;;;;;5.20;4.22;;;-0.90;99.90;;;;;;5070946;28;20193;-70
2022/02/05 04:37:47;;;;;;;7.85;3.42;;;-1.10;99.90;;;;;;5071011;28;20169;-70
2022/02/05 04:40:26;;;;;;;8.13;3.75;;;-1.20;99.90;;;;;;5070353;28;20160;-69
2022/02/05 04:59:46;;;;;;;4.63;3.30;;;-0.20;99.90;;;;;;5070528;28;20187;-70
2022/02/05 05:02:02;;;;;;;6.32;3.97;;;-0.20;99.90;;;;;;5070863;28;20594;-70
2022/02/05 05:12:28;;;;;;;5.60;3.80;;;-0.70;99.90;;;;;;5070170;28;20159;-70
2022/02/05 05:20:24;;;;;;;6.40;3.67;;;-0.30;99.90;;;;;;5070351;28;20184;-70
2022/02/05 05:22:50;;;;;;;6.63;3.60;;;-0.30;99.90;;;;;;5069993;28;20157;-70
2022/02/05 05:25:18;;;;;;;3.33;2.45;;;-0.40;99.90;;;;;;5069884;28;20684;-70
2022/02/05 05:27:44;;;;;;;5.15;3.35;;;-0.60;99.90;;;;;;5069831;28;20191;-70
2022/02/05 05:30:11;;;;;;;7.18;3.72;;;-0.60;99.90;;;;;;5069984;28;20164;-70
2022/02/05 05:32:38;;;;;;;4.32;3.00;;;-0.60;99.90;;;;;;5069951;28;20157;-70
2022/02/05 05:35:04;;;;;;;7.15;3.70;;;-0.60;99.90;;;;;;5069903;28;20248;-70
2022/02/05 05:37:31;;;;;;;6.57;3.90;;;-0.70;99.90;;;;;;5069646;28;20622;-70
2022/02/05 05:39:57;;;;;;;5.60;3.42;;;-0.60;99.90;;;;;;5069749;28;20199;-70
2022/02/05 05:42:31;;;;;;;6.15;3.55;;;-0.50;99.90;;;;;;5069669;28;20152;-70
2022/02/05 05:53:03;;;;;;;7.68;4.40;;;0.10;99.90;;;;;;5068930;28;20207;-70
2022/02/05 05:55:29;;;;;;;11.05;4.75;;;0.20;99.90;;;;;;5069482;28;20195;-70
2022/02/05 05:57:56;;;;;;;4.82;3.35;;;0.20;99.90;;;;;;5068252;28;20207;-70
2022/02/05 06:00:22;;;;;;;8.98;5.00;;;0.20;99.90;;;;;;5069455;28;20189;-70
2022/02/05 06:02:48;;;;;;;8.07;4.80;;;0.30;99.90;;;;;;5069176;28;20586;-70
2022/02/05 06:05:14;;;;;;;9.75;4.18;;;0.50;99.90;;;;;;5069163;28;20196;-70
2022/02/05 06:07:40;;;;;;;6.35;3.95;;;0.60;99.90;;;;;;5069413;28;20203;-70
2022/02/05 06:10:06;;;;;;;6.38;4.88;;;0.60;99.90;;;;;;5069375;28;20149;-70
2022/02/05 06:12:32;;;;;;;7.03;4.55;;;0.60;99.90;;;;;;5069261;28;20239;-70
2022/02/05 06:15:00;;;;;;;5.55;4.03;;;0.60;99.90;;;;;;5069146;28;20184;-70
2022/02/05 06:17:26;;;;;;;8.23;4.97;;;0.50;99.90;;;;;;5069290;28;20180;-70
2022/02/05 06:19:54;;;;;;;7.95;4.43;;;0.50;99.90;;;;;;5069200;28;20164;-70
2022/02/05 06:22:20;;;;;;;7.95;4.95;;;0.60;99.90;;;;;;5069120;28;20157;-70
2022/02/05 06:24:46;;;;;;;7.20;3.58;;;0.70;99.90;;;;;;5069278;28;20196;-70
2022/02/05 06:27:12;;;;;;;6.90;3.95;;;1.10;99.90;;;;;;5069070;28;20207;-70
2022/02/05 06:29:38;;;;;;;6.55;4.65;;;1.10;99.90;;;;;;5069189;28;20172;-70
2022/02/05 06:32:04;;;;;;;7.72;4.90;;;1.00;99.90;;;;;;5069032;28;20153;-69
2022/02/05 06:34:30;;;;;;;6.35;3.70;;;1.20;99.90;;;;;;5068848;28;20185;-70
2022/02/05 06:36:56;;;;;;;6.35;3.67;;;1.50;99.90;;;;;;5068916;28;20161;-70
2022/02/05 06:39:23;;;;;;;3.70;2.67;;;1.80;99.90;;;;;;5068905;28;20164;-70
2022/02/05 06:41:50;;;;;;;1.33;1.10;;;2.10;99.90;;;;;;5068810;28;20164;-70
2022/02/05 06:44:16;;;;;;;2.72;1.88;;;2.90;99.90;;;;;;5068833;28;20288;-69
2022/02/05 06:46:44;;;;;;;9.52;2.90;;;3.50;99.90;;;;;;5068897;28;20192;-70
2022/02/05 06:49:11;;;;;;;7.55;2.78;;;3.40;99.90;;;;;;5068909;28;20283;-70
2022/02/05 06:51:37;;;;;;;3.28;2.40;;;3.00;99.90;;;;;;5068833;28;20191;-70
2022/02/05 06:54:03;;;;;;;3.80;2.78;;;2.70;99.90;;;;;;5068855;28;20521;-70
2022/02/05 06:56:29;;;;;;;5.25;2.95;;;2.60;99.90;;;;;;5068732;28;20207;-70
2022/02/05 06:58:55;;;;;;;3.95;2.42;;;2.50;99.90;;;;;;5068828;28;20169;-70
2022/02/05 07:01:21;;;;;;;6.65;2.50;;;2.40;99.90;;;;;;5067334;28;20242;-70
2022/02/05 07:03:47;;;;;;;3.13;2.42;;;2.40;99.90;;;;;;5071196;28;20376;-70
2022/02/05 07:06:13;;;;;;;3.85;2.83;;;2.40;99.90;;;;;;5072580;28;20184;-70
2022/02/05 07:08:41;;;;;;;4.88;2.20;;;2.50;99.90;;;;;;5072478;28;20153;-70
2022/02/05 07:11:07;;;;;;;6.20;2.05;;;2.60;99.90;;;;;;5074896;28;20165;-71
2022/02/05 07:13:34;;;;;;;4.68;2.83;;;2.70;99.90;;;;;;5072444;28;20216;-71
2022/02/05 07:16:08;;;;;;;3.25;2.30;;;2.90;99.90;;;;;;5072451;28;20192;-71
2022/02/05 07:21:08;;;;;;;4.28;2.42;;;3.00;99.90;;;;;;5072418;28;20153;-71
2022/02/05 07:31:40;;;;;;;3.22;1.73;;;3.40;99.90;;;;;;5072148;28;20160;-71
2022/02/05 07:34:07;;;;;;;2.35;1.48;;;3.70;99.90;;;;;;5072084;28;20208;-71
2022/02/05 07:36:33;;;;;;;2.33;1.02;;;4.00;99.90;;;;;;5071966;28;20161;-71
2022/02/05 07:38:59;;;;;;;3.28;2.08;;;4.30;99.90;;;;;;5071949;28;20210;-71
2022/02/05 07:41:25;;;;;;;1.50;1.00;;;4.40;99.90;;;;;;5071960;28;20579;-71
2022/02/05 07:43:51;;;;;;;2.15;1.35;;;4.60;99.90;;;;;;5071830;28;20257;-71
2022/02/05 07:46:17;;;;;;;1.65;1.00;;;4.70;99.90;;;;;;5071769;28;20188;-71
2022/02/05 07:48:43;;;;;;;1.20;1.00;;;4.70;99.90;;;;;;5071912;28;20157;-71
2022/02/05 07:51:10;;;;;;;1.55;0.85;;;4.70;99.90;;;;;;5071813;28;20157;-71
2022/02/05 07:53:36;;;;;;;1.20;0.77;;;4.70;99.90;;;;;;5071795;28;20628;-71
2022/02/05 07:56:04;;;;;;;3.35;1.15;;;4.70;99.90;;;;;;5071486;28;20248;-71
2022/02/05 07:58:31;;;;;;;1.42;0.80;;;4.70;99.90;;;;;;5071680;28;20211;-71
2022/02/05 08:00:57;;;;;;;1.25;0.77;;;4.70;99.90;;;;;;5071451;28;20216;-72
2022/02/05 08:03:23;;;;;;;1.10;0.90;;;4.60;99.90;;;;;;5071498;28;20551;-72
2022/02/05 08:05:49;;;;;;;2.67;0.80;;;4.60;99.90;;;;;;5071275;28;20216;-72
2022/02/05 08:08:18;;;;;;;1.27;0.50;;;4.90;99.90;;;;;;5071498;28;20149;-72
2022/02/05 08:10:56;;;;;;;1.30;0.68;;;5.40;99.90;;;;;;5071415;28;20153;-71
2022/02/05 08:13:25;;;;;;;0.88;0.70;;;5.70;99.90;;;;;;5071211;28;20156;-72
2022/02/05 08:15:56;;;;;;;1.48;0.93;;;6.00;99.90;;;;;;5070356;28;20192;-72
2022/02/05 08:18:22;;;;;;;2.30;1.23;;;6.40;99.90;;;;;;5071463;28;20153;-72
2022/02/05 08:20:48;;;;;;;1.48;0.80;;;6.90;99.90;;;;;;5071241;28;20688;-72
2022/02/05 08:23:14;;;;;;;1.42;0.90;;;7.20;99.90;;;;;;5071005;28;20153;-72
2022/02/05 08:25:40;;;;;;;0.50;0.50;;;7.90;99.90;;;;;;5070994;28;20219;-72
2022/02/05 08:28:06;;;;;;;1.05;0.50;;;9.50;99.90;;;;;;5071046;28;20192;-72
2022/02/05 08:30:32;;;;;;;1.40;0.70;;;11.80;99.90;;;;;;5069610;28;20172;-72
2022/02/05 08:32:59;;;;;;;0.70;0.50;;;13.90;99.90;;;;;;5071087;28;20265;-73
2022/02/05 08:35:25;;;;;;;3.35;0.68;;;15.40;99.90;;;;;;5070896;28;20271;-72
2022/02/05 08:37:55;;;;;;;3.20;0.68;;;17.50;99.90;;;;;;5070859;28;20149;-72
2022/02/05 08:40:21;;;;;;;2.88;0.65;;;19.00;98.80;;;;;;5070909;28;20145;-72
2022/02/05 08:42:48;;;;;;;2.42;0.68;;;19.40;97.80;;;;;;5070674;28;20593;-74
2022/02/05 08:45:14;;;;;;;1.50;0.80;;;20.00;96.90;;;;;;5070586;28;20215;-72
2022/02/05 08:47:40;;;;;;;2.22;0.40;;;20.70;95.50;;;;;;5070734;28;20197;-72
2022/02/05 08:50:06;;;;;;;3.40;0.57;;;16.20;97.50;;;;;;5070493;28;20212;-73
2022/02/05 08:52:38;;;;;;;4.28;0.60;;;15.60;98.90;;;;;;5070731;28;20177;-73
2022/02/05 08:55:05;;;;;;;0.75;0.32;;;16.40;99.40;;;;;;5070484;28;20216;-72
2022/02/05 08:57:34;;;;;;;0.98;0.45;;;14.40;99.90;;;;;;5070579;28;20165;-72
2022/02/05 09:00:09;;;;;;;0.60;0.40;;;12.60;99.90;;;;;;5070340;28;20172;-73
2022/02/05 09:07:36;;;;;;;0.63;0.30;;;10.70;99.90;;;;;;5070374;28;20283;-72
2022/02/05 09:10:23;;;;;;;0.95;0.30;;;12.40;99.90;;;;;;5070104;28;20161;-73
2022/02/05 09:13:13;;;;;;;10.77;0.68;;;13.20;99.90;;;;;;5070205;28;20149;-72
2022/02/05 09:15:39;;;;;;;2.42;0.35;;;15.10;98.60;;;;;;5069950;28;20184;-72
2022/02/05 09:18:06;;;;;;;0.28;0.22;;;15.00;98.30;;;;;;5070166;28;20197;-72
2022/02/05 09:20:31;;;;;;;2.33;0.30;;;15.50;98.40;;;;;;5070014;28;20207;-72
2022/02/05 09:22:57;;;;;;;1.90;0.28;;;15.60;96.80;;;;;;5069903;28;20169;-72
2022/02/05 09:25:25;;;;;;;0.22;0.20;;;14.70;97.80;;;;;;5069769;28;20210;-72
2022/02/05 09:27:51;;;;;;;0.17;0.17;;;13.80;98.00;;;;;;5071584;28;20214;-72
2022/02/05 09:30:28;;;;;;;2.92;0.47;;;13.90;98.80;;;;;;5078514;28;20341;-72
2022/02/05 09:32:54;;;;;;;0.93;0.55;;;14.10;97.30;;;;;;5082968;28;20187;-73
2022/02/05 09:35:20;;;;;;;1.55;0.28;;;14.50;97.50;;;;;;5089678;28;20199;-72
2022/02/05 09:37:46;;;;;;;0.75;0.40;;;14.00;97.40;;;;;;5071450;28;20165;-72
2022/02/05 09:40:12;;;;;;;0.40;0.28;;;13.50;97.50;;;;;;5069664;28;20223;-72
2022/02/05 09:42:47;;;;;;;0.20;0.20;;;13.80;97.80;;;;;;5069794;28;20161;-72
2022/02/05 09:45:14;;;;;;;2.65;0.40;;;14.90;95.80;;;;;;5078703;28;20195;-72
2022/02/05 09:47:40;;;;;;;3.20;0.30;;;15.70;96.10;;;;;;5089516;28;20579;-72
2022/02/05 09:50:07;;;;;;;1.05;0.20;;;14.60;95.10;;;;;;5089326;28;20153;-72
2022/02/05 09:52:33;;;;;;;2.83;0.50;;;13.40;96.20;;;;;;5089535;28;20152;-72
2022/02/05 09:54:59;;;;;;;2.28;0.30;;;14.20;96.20;;;;;;5081933;28;20267;-72
2022/02/05 09:57:25;;;;;;;0.10;0.10;;;14.60;95.40;;;;;;5074448;28;20191;-72
2022/02/05 10:00:00;;;;;;;0.20;0.20;;;15.20;93.70;;;;;;5068773;28;20180;-72
2022/02/05 10:02:30;;;;;;;0.30;0.30;;;14.50;93.90;;;;;;5079646;28;20230;-72
2022/02/05 10:05:03;;;;;;;1.08;0.30;;;15.10;94.60;;;;;;5089168;28;20259;-72
2022/02/05 10:07:30;;;;;;;3.03;1.55;;;17.10;92.80;;;;;;5089164;28;20218;-71
2022/02/05 10:10:00;;;;;;;4.32;2.38;;;18.00;94.30;;;;;;5078390;28;20200;-71
2022/02/05 10:12:27;;;;;;;5.05;2.10;;;15.90;98.10;;;;;;5069132;28;20153;-71
2022/02/05 10:14:56;;;;;;;4.00;2.72;;;15.30;98.60;;;;;;5068958;28;20188;-71
2022/02/05 10:17:42;;;;;;;7.07;2.75;;;15.70;98.60;;;;;;5068949;28;20189;-71
2022/02/05 10:20:08;;;;;;;6.30;2.17;;;15.60;99.00;;;;;;5068869;28;20183;-71
2022/02/05 10:22:40;;;;;;;7.57;2.40;;;15.40;99.30;;;;;;5068970;28;20171;-71
2022/02/05 10:25:17;;;;;;;7.53;2.55;;;15.00;99.70;;;;;;5068840;28;20185;-71
2022/02/05 10:27:45;;;;;;;10.88;2.78;;;14.40;99.90;;;;;;5070921;28;20184;-71
2022/02/05 10:30:27;;;;;;;5.00;1.90;;;14.20;99.90;;;;;;5070489;28;20173;-71
2022/02/05 10:33:11;;;;;;;6.28;2.55;;;14.30;99.90;;;;;;5068635;28;20683;-71
2022/02/05 10:36:03;;;;;;;10.73;2.33;;;14.10;99.90;;;;;;5069760;28;20192;-71
2022/02/05 10:43:55;;;;;;;2.30;1.95;;;14.10;99.90;;;;;;5071361;28;20187;-71
2022/02/05 10:46:33;;;;;;;7.43;2.63;;;14.00;99.90;;;;;;5083419;28;20199;-70
2022/02/05 10:48:59;;;;;;;4.70;1.80;;;14.30;99.90;;;;;;5092860;28;20163;-70
2022/02/05 10:51:42;;;;;;;5.03;1.73;;;14.70;99.30;;;;;;5092784;28;20160;-70
2022/02/05 10:54:18;;;;;;;6.50;2.22;;;14.90;99.40;;;;;;5092740;28;20192;-70
2022/02/05 10:57:15;;;;;;;5.10;2.00;;;15.00;99.40;;;;;;5092212;28;20613;-71
2022/02/05 11:05:14;;;;;;;5.32;2.42;;;14.80;99.90;;;;;;5092797;28;20152;-71
2022/02/05 11:05:50;;;;;;;4.57;2.03;;;15.30;99.90;;;;;;5098124;28;20683;-71
2022/02/05 11:08:18;;;;;;;2.40;1.23;;;16.40;99.10;;;;;;5092283;28;20187;-70
2022/02/05 11:21:05;;;;;;;0.30;0.22;;;13.80;88.60;;;;;;5077389;28;20191;-70
2022/02/05 11:23:33;;;;;;;0.52;0.30;;;13.90;90.60;;;;;;5070770;28;20157;-70
2022/02/05 11:26:00;;;;;;;1.35;0.20;;;14.40;88.50;;;;;;5070958;28;20253;-70
2022/02/05 11:28:44;;;;;;;2.15;0.20;;;14.10;86.30;;;;;;5072292;28;20180;-71
2022/02/05 11:31:15;;;;;;;0.20;0.20;;;13.30;88.40;;;;;;5091999;28;20195;-71
2022/02/05 11:33:42;;;;;;;0.10;0.10;;;13.20;87.00;;;;;;5092016;28;20148;-71
2022/02/05 11:38:45;;;;;;;2.38;1.00;;;12.60;88.00;;;;;;5071987;28;20159;-70
2022/02/05 11:41:32;;;;;;;0.15;0.13;;;12.90;88.60;;;;;;5070667;28;20176;-70
2022/02/05 11:44:39;;;;;;;0.40;0.10;;;13.30;86.40;;;;;;5071827;28;20536;-70
2022/02/05 11:47:11;;;;;;;0.82;0.17;;;13.90;85.10;;;;;;5069436;28;20267;-70
2022/02/05 11:49:52;;;;;;;1.20;0.95;;;14.60;88.10;;;;;;5068210;28;20180;-71
2022/02/05 11:52:36;;;;;;;5.15;1.55;;;15.50;93.60;;;;;;5069727;28;20157;-70
2022/02/05 11:55:13;;;;;;;1.25;0.90;;;16.80;92.40;;;;;;5069422;28;20183;-70
2022/02/05 11:57:42;;;;;;;1.15;0.80;;;16.80;92.00;;;;;;5069412;28;20156;-70
2022/02/05 12:00:22;;;;;;;1.50;1.10;;;16.30;91.40;;;;;;5069403;28;20164;-70
2022/02/05 12:05:26;;;;;;;2.17;1.10;;;16.40;93.30;;;;;;5069092;28;20200;-70
2022/02/05 12:08:24;;;;;;;1.60;0.90;;;17.10;93.20;;;;;;5069331;28;20701;-70
2022/02/05 12:10:51;;;;;;;0.80;0.70;;;17.40;91.80;;;;;;5060273;28;20189;-70
2022/02/05 12:13:21;;;;;;;1.65;0.88;;;17.60;91.30;;;;;;5069008;28;20198;-70
2022/02/05 12:15:59;;;;;;;1.55;1.30;;;17.50;91.80;;;;;;5069253;28;20724;-70
2022/02/05 12:18:27;;;;;;;1.75;1.00;;;18.10;92.10;;;;;;5069061;28;20220;-70
2022/02/05 12:21:00;;;;;;;4.15;1.40;;;19.20;90.00;;;;;;5070117;28;20713;-70
2022/02/05 12:26:21;;;;;;;3.80;0.35;;;19.10;90.90;;;;;;5070934;28;20223;-71
2022/02/05 12:28:54;;;;;;;0.22;0.17;;;17.30;82.70;;;;;;5075624;28;20176;-71
2022/02/05 12:31:29;;;;;;;0.43;0.20;;;16.60;81.20;;;;;;5089461;28;20235;-71
2022/02/05 12:33:59;;;;;;;0.15;0.15;;;15.80;79.20;;;;;;5090751;28;20284;-70
2022/02/05 12:36:29;;;;;;;0.10;0.10;;;14.40;81.70;;;;;;5081118;28;20278;-70
2022/02/05 12:38:56;;;;;;;0.10;0.10;;;13.40;83.40;;;;;;5070861;28;20157;-70
2022/02/05 12:41:25;;;;;;;0.20;0.20;;;12.70;83.70;;;;;;5079867;28;20203;-69
2022/02/05 12:43:57;;;;;;;0.20;0.20;;;12.20;85.50;;;;;;5089601;28;20240;-71
2022/02/05 12:46:32;;;;;;;3.20;0.50;;;11.80;86.80;;;;;;5090647;28;20241;-70
2022/02/05 12:49:06;;;;;;;0.70;0.20;;;11.70;89.00;;;;;;5090440;28;20518;-71
2022/02/05 12:51:32;;;;;;;2.00;0.40;;;12.10;86.50;;;;;;5078945;28;20237;-72
2022/02/05 12:54:11;;;;;;;0.73;0.20;;;12.10;86.70;;;;;;5068958;28;20157;-70
2022/02/05 12:56:42;;;;;;;0.10;0.10;;;12.00;84.20;;;;;;5069044;28;20198;-71
2022/02/05 12:59:14;;;;;;;0.57;0.30;;;11.90;85.60;;;;;;5080282;28;20202;-71
2022/02/05 13:01:55;;;;;;;0.28;0.28;;;12.00;86.00;;;;;;5078317;28;20293;-71
2022/02/05 13:04:23;;;;;;;3.63;0.43;;;11.90;85.50;;;;;;5077923;28;20602;-70
2022/02/05 13:07:00;;;;;;;0.60;0.40;;;11.90;85.50;;;;;;5079265;28;20203;-73
2022/02/05 13:09:31;;;;;;;2.00;0.30;;;11.90;85.20;;;;;;5079830;28;20165;-72
2022/02/05 13:12:01;;;;;;;0.20;0.20;;;11.70;85.40;;;;;;5081410;28;20192;-72
2022/02/05 13:14:50;;;;;;;3.58;0.40;;;11.70;84.60;;;;;;5090039;28;20156;-72
2022/02/05 13:17:32;;;;;;;0.57;0.32;;;11.70;84.50;;;;;;5089984;28;20148;-72
2022/02/05 13:28:10;;;;;;;0.85;0.20;;;11.30;85.90;;;;;;5075846;28;20656;-72
2022/02/05 13:36:12;;;;;;;0.05;0.05;;;10.70;85.40;;;;;;5083969;28;20198;-72
2022/02/05 13:41:29;;;;;;;0.20;0.10;;;10.70;84.40;;;;;;5089656;28;20156;-72
2022/02/05 13:43:57;;;;;;;0.17;0.10;;;10.90;84.70;;;;;;5086516;28;20149;-72
2022/02/05 13:46:24;;;;;;;0.65;0.60;;;10.70;82.90;;;;;;5085651;28;20200;-72
2022/02/05 13:48:50;;;;;;;1.30;0.40;;;10.60;83.80;;;;;;5085080;28;20249;-72
2022/02/05 13:51:16;;;;;;;0.45;0.20;;;10.60;83.90;;;;;;5089495;28;20160;-72
2022/02/05 13:53:57;;;;;;;0.20;0.20;;;10.60;83.30;;;;;;5088535;28;20198;-72
2022/02/05 13:56:23;;;;;;;1.25;0.38;;;10.50;82.30;;;;;;5088261;28;20195;-72
2022/02/05 13:58:50;;;;;;;0.45;0.20;;;10.40;83.00;;;;;;5088072;28;20195;-72
2022/02/05 14:01:33;;;;;;;0.10;0.10;;;10.40;83.00;;;;;;5086775;28;20265;-72
2022/02/05 14:04:19;;;;;;;1.23;0.20;;;10.40;83.90;;;;;;5087529;28;20178;-72
2022/02/05 14:06:53;;;;;;;0.30;0.22;;;10.50;81.50;;;;;;5078842;28;20212;-73
2022/02/05 14:09:30;;;;;;;0.30;0.10;;;10.30;81.80;;;;;;5069511;28;20839;-72
2022/02/05 14:11:59;;;;;;;0.98;0.52;;;10.40;82.30;;;;;;5087507;28;20271;-72
2022/02/05 14:14:30;;;;;;;0.13;0.10;;;10.40;80.70;;;;;;5087847;28;20652;-72
2022/02/05 14:16:57;;;;;;;0.25;0.20;;;10.30;80.00;;;;;;5089037;28;20156;-72
2022/02/05 14:19:28;;;;;;;0.30;0.20;;;10.30;80.00;;;;;;5089099;28;20160;-72
2022/02/05 14:21:57;;;;;;;1.17;0.40;;;10.30;79.80;;;;;;5089006;28;20287;-72
2022/02/05 14:24:29;;;;;;;0.20;0.15;;;10.30;80.10;;;;;;5088179;28;20152;-72
2022/02/05 14:27:09;;;;;;;0.65;0.30;;;10.20;79.70;;;;;;5088978;28;20267;-73
2022/02/05 14:32:26;;;;;;;0.98;0.60;;;10.10;80.40;;;;;;5087873;28;20195;-73
2022/02/05 14:40:30;;;;;;;0.40;0.20;;;10.10;79.20;;;;;;5088898;28;20163;-72
2022/02/05 14:42:56;;;;;;;0.22;0.20;;;10.00;79.00;;;;;;5088354;28;20167;-72
2022/02/05 14:45:22;;;;;;;0.30;0.20;;;10.00;79.50;;;;;;5088416;28;20164;-73
2022/02/05 14:47:48;;;;;;;3.30;0.20;;;10.00;79.90;;;;;;5088543;28;20669;-71
2022/02/05 14:50:14;;;;;;;0.20;0.10;;;9.90;79.50;;;;;;5087313;28;20187;-71
2022/02/05 14:52:40;;;;;;;0.10;0.10;;;9.90;79.50;;;;;;5088451;28;20179;-71
2022/02/05 14:55:06;;;;;;;0.30;0.20;;;9.80;79.60;;;;;;5088454;28;20188;-71
2022/02/05 14:57:32;;;;;;;0.85;0.20;;;9.80;79.70;;;;;;5088140;28;20218;-70
2022/02/05 14:59:57;;;;;;;1.92;0.30;;;9.70;79.10;;;;;;5088759;28;20160;-72
2022/02/05 15:02:24;;;;;;;3.03;0.30;;;9.70;79.90;;;;;;5088365;28;20227;-73
2022/02/05 15:04:50;;;;;;;2.05;0.13;;;9.60;80.00;;;;;;5088139;28;20202;-72
2022/02/05 15:07:18;;;;;;;0.30;0.22;;;9.50;79.90;;;;;;5088316;28;20204;-72
2022/02/05 15:09:44;;;;;;;0.63;0.20;;;9.50;80.50;;;;;;5086978;28;20202;-72
2022/02/05 15:12:10;;;;;;;0.30;0.30;;;9.40;81.00;;;;;;5084798;28;20179;-71
2022/02/05 15:14:36;;;;;;;1.00;0.40;;;9.20;81.90;;;;;;5088237;28;20160;-72
2022/02/05 15:17:03;;;;;;;1.85;0.30;;;9.10;81.50;;;;;;5088461;28;20242;-71
2022/02/05 15:19:29;;;;;;;2.83;1.80;;;8.90;82.90;;;;;;5088410;28;20622;-71
2022/02/05 15:21:55;;;;;;;3.33;1.83;;;9.10;99.70;;;;;;5087910;28;20160;-71
2022/02/05 15:24:21;;;;;;;2.65;1.65;;;9.20;99.90;;;;;;5089867;28;20232;-71
2022/02/05 15:26:47;;;;;;;2.78;2.00;;;9.00;99.90;;;;;;5091987;28;20213;-70
2022/02/05 15:29:13;;;;;;;3.67;2.42;;;9.00;99.90;;;;;;5089428;28;20172;-71
2022/02/05 15:31:42;;;;;;;3.15;2.20;;;8.90;99.90;;;;;;5090042;28;20148;-71
2022/02/05 15:34:09;;;;;;;3.03;2.17;;;8.70;99.90;;;;;;5091456;28;20617;-71
2022/02/05 15:36:50;;;;;;;4.28;2.15;;;8.50;99.90;;;;;;5091703;28;20198;-71
2022/02/05 15:39:28;;;;;;;1.63;1.52;;;8.30;99.90;;;;;;5091889;28;20201;-71
2022/02/05 15:44:39;;;;;;;4.40;2.03;;;7.80;99.90;;;;;;5091303;28;20183;-71
2022/02/05 15:47:05;;;;;;;7.25;2.83;;;7.60;99.90;;;;;;5091688;28;20199;-72
2022/02/05 15:49:31;;;;;;;4.00;2.47;;;7.60;99.90;;;;;;5091736;28;20157;-72
2022/02/05 15:51:59;;;;;;;5.05;2.50;;;7.50;99.90;;;;;;5091897;28;20156;-71
2022/02/05 15:54:28;;;;;;;4.32;2.25;;;7.50;99.90;;;;;;5087507;28;20210;-71
2022/02/05 15:59:24;;;;;;;9.27;2.38;;;7.40;99.90;;;;;;5090367;28;20156;-72
2022/02/05 16:01:50;;;;;;;3.45;2.47;;;7.40;99.90;;;;;;5091217;28;20241;-71
2022/02/05 16:04:21;;;;;;;3.83;2.83;;;7.20;99.90;;;;;;5090851;28;20226;-72
2022/02/05 16:06:48;;;;;;;6.05;2.65;;;7.00;99.90;;;;;;5090238;28;20266;-71
2022/02/05 16:09:14;;;;;;;4.45;2.70;;;6.80;99.90;;;;;;5091230;28;20156;-71
2022/02/05 16:11:40;;;;;;;6.75;3.28;;;6.60;99.90;;;;;;5091461;28;20152;-71
2022/02/05 16:14:05;;;;;;;5.88;2.85;;;6.50;99.90;;;;;;5090721;28;20219;-71
2022/02/05 16:16:32;;;;;;;5.97;3.03;;;6.30;99.90;;;;;;5089555;28;20236;-71
2022/02/05 16:18:57;;;;;;;4.63;2.88;;;6.20;99.90;;;;;;5084403;28;20179;-72
2022/02/05 16:21:24;;;;;;;5.00;3.05;;;6.00;99.90;;;;;;5091178;28;20207;-71
2022/02/05 16:23:51;;;;;;;15.95;6.25;;;5.90;99.90;;;;;;5091372;28;20255;-71